Terminal Aerodrome Forecast
Issued by NWS Cleveland, OH

Home | Current Version | Previous Version | Text Only | Print | Product List | Glossary On
Versions: 1 2 3 4 5 6 7 8 9 10 11 12 13 14 15 16 17 18
000
FTUS41 KCLE 010500
TAFTOL
TAF
KTOL 010539Z 0106/0206 01005KT P6SM SCT012 BKN020
     FM010900 01003KT 4SM BR SCT006 BKN012
      TEMPO 0110/0113 2SM BR OVC006
     FM011400 03005KT P6SM BKN012
     FM011600 05005KT P6SM BKN020
     FM011800 07005KT P6SM BKN035
     FM012200 09003KT P6SM SKC
     FM020400 09003KT 3SM BR SCT003=

USA.gov is the U.S. government's official web portal to all federal, state and local government web resources and services.